sensor_id;sensor_type;location;lat;lon;timestamp;pressure;altitude;pressure_sealevel;temperature;humidity
54936;BME280;40838;50.676;7.838;2023-05-21T00:01:02;98334.81;;;4.36;100.00
54936;BME280;40838;50.676;7.838;2023-05-21T00:03:30;98337.78;;;4.39;100.00
54936;BME280;40838;50.676;7.838;2023-05-21T00:05:57;98334.13;;;4.29;100.00
54936;BME280;40838;50.676;7.838;2023-05-21T00:08:27;98337.94;;;4.21;100.00
54936;BME280;40838;50.676;7.838;2023-05-21T00:10:53;98339.41;;;4.29;100.00
54936;BME280;40838;50.676;7.838;2023-05-21T00:13:21;98337.09;;;4.20;100.00
54936;BME280;40838;50.676;7.838;2023-05-21T00:15:48;98323.44;;;4.23;100.00
54936;BME280;40838;50.676;7.838;2023-05-21T00:18:15;98324.66;;;4.16;100.00
54936;BME280;40838;50.676;7.838;2023-05-21T00:20:42;98322.94;;;4.10;100.00
54936;BME280;40838;50.676;7.838;2023-05-21T00:23:10;98321.44;;;4.14;100.00
54936;BME280;40838;50.676;7.838;2023-05-21T00:25:40;98311.78;;;4.19;100.00
54936;BME280;40838;50.676;7.838;2023-05-21T00:28:06;98305.47;;;4.20;100.00
54936;BME280;40838;50.676;7.838;2023-05-21T00:30:33;98304.34;;;4.16;100.00
54936;BME280;40838;50.676;7.838;2023-05-21T00:33:00;98303.78;;;4.14;100.00
54936;BME280;40838;50.676;7.838;2023-05-21T00:35:27;98303.09;;;4.19;100.00
54936;BME280;40838;50.676;7.838;2023-05-21T00:37:53;98301.94;;;4.15;100.00
54936;BME280;40838;50.676;7.838;2023-05-21T00:40:20;98298.97;;;4.11;100.00
54936;BME280;40838;50.676;7.838;2023-05-21T00:42:50;98295.88;;;4.14;100.00
54936;BME280;40838;50.676;7.838;2023-05-21T00:45:17;98297.25;;;4.17;100.00
54936;BME280;40838;50.676;7.838;2023-05-21T00:47:46;98291.16;;;4.16;100.00
54936;BME280;40838;50.676;7.838;2023-05-21T00:50:12;98290.69;;;4.19;100.00
54936;BME280;40838;50.676;7.838;2023-05-21T00:52:43;98288.31;;;4.18;100.00
54936;BME280;40838;50.676;7.838;2023-05-21T00:55:10;98285.31;;;4.14;100.00
54936;BME280;40838;50.676;7.838;2023-05-21T00:57:37;98284.06;;;4.17;100.00
54936;BME280;40838;50.676;7.838;2023-05-21T01:00:10;98289.09;;;4.18;100.00
54936;BME280;40838;50.676;7.838;2023-05-21T01:02:42;98286.22;;;4.20;100.00
54936;BME280;40838;50.676;7.838;2023-05-21T01:05:09;98283.03;;;4.18;100.00
54936;BME280;40838;50.676;7.838;2023-05-21T01:07:39;98277.50;;;4.19;100.00
54936;BME280;40838;50.676;7.838;2023-05-21T01:10:07;98274.53;;;4.28;100.00
54936;BME280;40838;50.676;7.838;2023-05-21T01:12:35;98268.22;;;4.29;100.00
54936;BME280;40838;50.676;7.838;2023-05-21T01:15:03;98273.72;;;4.27;100.00
54936;BME280;40838;50.676;7.838;2023-05-21T01:17:31;98269.56;;;4.31;100.00
54936;BME280;40838;50.676;7.838;2023-05-21T01:19:58;98274.84;;;4.31;100.00
54936;BME280;40838;50.676;7.838;2023-05-21T01:22:25;98270.06;;;4.28;100.00
54936;BME280;40838;50.676;7.838;2023-05-21T01:24:55;98272.13;;;4.14;100.00
54936;BME280;40838;50.676;7.838;2023-05-21T01:27:22;98271.44;;;4.19;100.00
54936;BME280;40838;50.676;7.838;2023-05-21T01:29:49;98273.34;;;4.07;100.00
54936;BME280;40838;50.676;7.838;2023-05-21T01:32:18;98268.84;;;4.07;100.00
54936;BME280;40838;50.676;7.838;2023-05-21T01:34:49;98265.06;;;4.03;100.00
54936;BME280;40838;50.676;7.838;2023-05-21T01:37:19;98267.28;;;4.23;100.00
54936;BME280;40838;50.676;7.838;2023-05-21T01:39:54;98266.63;;;4.28;100.00
54936;BME280;40838;50.676;7.838;2023-05-21T01:42:23;98260.06;;;4.30;100.00
54936;BME280;40838;50.676;7.838;2023-05-21T01:44:51;98262.38;;;4.27;100.00
54936;BME280;40838;50.676;7.838;2023-05-21T01:47:20;98257.53;;;4.23;100.00
54936;BME280;40838;50.676;7.838;2023-05-21T01:49:51;98261.47;;;4.21;100.00
54936;BME280;40838;50.676;7.838;2023-05-21T01:52:17;98259.31;;;4.18;100.00
54936;BME280;40838;50.676;7.838;2023-05-21T01:54:44;98260.31;;;4.17;100.00
54936;BME280;40838;50.676;7.838;2023-05-21T01:57:10;98267.50;;;4.05;100.00
54936;BME280;40838;50.676;7.838;2023-05-21T01:59:39;98261.53;;;4.09;100.00
54936;BME280;40838;50.676;7.838;2023-05-21T02:02:06;98267.34;;;4.11;100.00
54936;BME280;40838;50.676;7.838;2023-05-21T02:04:32;98265.75;;;4.10;100.00
54936;BME280;40838;50.676;7.838;2023-05-21T02:06:59;98265.28;;;4.13;100.00
54936;BME280;40838;50.676;7.838;2023-05-21T02:09:28;98267.13;;;4.13;100.00
54936;BME280;40838;50.676;7.838;2023-05-21T02:11:55;98261.59;;;4.14;100.00
54936;BME280;40838;50.676;7.838;2023-05-21T02:14:22;98269.84;;;4.18;100.00
54936;BME280;40838;50.676;7.838;2023-05-21T02:16:50;98263.19;;;4.27;100.00
54936;BME280;40838;50.676;7.838;2023-05-21T02:19:17;98258.84;;;4.21;100.00
54936;BME280;40838;50.676;7.838;2023-05-21T02:21:44;98262.47;;;4.20;100.00
54936;BME280;40838;50.676;7.838;2023-05-21T02:24:11;98257.69;;;4.17;100.00
54936;BME280;40838;50.676;7.838;2023-05-21T02:26:37;98260.22;;;4.12;100.00
54936;BME280;40838;50.676;7.838;2023-05-21T02:29:04;98260.31;;;4.17;100.00
54936;BME280;40838;50.676;7.838;2023-05-21T02:31:31;98258.47;;;4.17;100.00
54936;BME280;40838;50.676;7.838;2023-05-21T02:33:59;98247.28;;;4.10;100.00
54936;BME280;40838;50.676;7.838;2023-05-21T02:36:25;98254.41;;;4.10;100.00
54936;BME280;40838;50.676;7.838;2023-05-21T02:38:57;98251.44;;;4.06;100.00
54936;BME280;40838;50.676;7.838;2023-05-21T02:41:25;98250.63;;;4.06;100.00
54936;BME280;40838;50.676;7.838;2023-05-21T02:43:52;98249.59;;;4.07;100.00
54936;BME280;40838;50.676;7.838;2023-05-21T02:46:19;98248.25;;;4.04;100.00
54936;BME280;40838;50.676;7.838;2023-05-21T02:48:45;98259.00;;;4.03;100.00
54936;BME280;40838;50.676;7.838;2023-05-21T02:51:15;98247.88;;;4.12;100.00
54936;BME280;40838;50.676;7.838;2023-05-21T02:53:42;98247.47;;;4.20;100.00
54936;BME280;40838;50.676;7.838;2023-05-21T02:56:08;98245.28;;;4.17;100.00
54936;BME280;40838;50.676;7.838;2023-05-21T02:58:36;98244.03;;;4.20;100.00
54936;BME280;40838;50.676;7.838;2023-05-21T03:01:03;98246.56;;;4.15;100.00
54936;BME280;40838;50.676;7.838;2023-05-21T03:03:32;98249.19;;;4.15;100.00
54936;BME280;40838;50.676;7.838;2023-05-21T03:05:59;98251.16;;;4.19;100.00
54936;BME280;40838;50.676;7.838;2023-05-21T03:08:27;98251.94;;;4.20;100.00
54936;BME280;40838;50.676;7.838;2023-05-21T03:10:59;98249.78;;;4.17;100.00
54936;BME280;40838;50.676;7.838;2023-05-21T03:13:26;98243.50;;;4.18;100.00
54936;BME280;40838;50.676;7.838;2023-05-21T03:15:53;98242.59;;;4.12;100.00
54936;BME280;40838;50.676;7.838;2023-05-21T03:18:20;98240.44;;;4.09;100.00
54936;BME280;40838;50.676;7.838;2023-05-21T03:20:48;98239.75;;;4.02;100.00
54936;BME280;40838;50.676;7.838;2023-05-21T03:23:15;98237.78;;;4.09;100.00
54936;BME280;40838;50.676;7.838;2023-05-21T03:25:44;98235.38;;;4.08;100.00
54936;BME280;40838;50.676;7.838;2023-05-21T03:28:11;98233.78;;;4.07;100.00
54936;BME280;40838;50.676;7.838;2023-05-21T03:30:45;98237.13;;;4.02;100.00
54936;BME280;40838;50.676;7.838;2023-05-21T03:33:31;98242.88;;;3.99;100.00
54936;BME280;40838;50.676;7.838;2023-05-21T03:36:06;98226.34;;;4.04;100.00
54936;BME280;40838;50.676;7.838;2023-05-21T03:38:35;98233.00;;;4.06;100.00
54936;BME280;40838;50.676;7.838;2023-05-21T03:41:04;98233.53;;;4.08;100.00
54936;BME280;40838;50.676;7.838;2023-05-21T03:43:31;98232.53;;;4.09;100.00
54936;BME280;40838;50.676;7.838;2023-05-21T03:45:58;98232.28;;;4.11;100.00
54936;BME280;40838;50.676;7.838;2023-05-21T03:48:43;98233.84;;;4.12;100.00
54936;BME280;40838;50.676;7.838;2023-05-21T03:51:19;98231.56;;;4.15;100.00
54936;BME280;40838;50.676;7.838;2023-05-21T03:53:46;98235.91;;;4.21;100.00
54936;BME280;40838;50.676;7.838;2023-05-21T03:56:14;98235.16;;;4.26;100.00
54936;BME280;40838;50.676;7.838;2023-05-21T03:58:41;98240.91;;;4.23;100.00
54936;BME280;40838;50.676;7.838;2023-05-21T04:01:07;98241.03;;;4.28;100.00
54936;BME280;40838;50.676;7.838;2023-05-21T04:03:35;98242.41;;;4.31;100.00
54936;BME280;40838;50.676;7.838;2023-05-21T04:06:03;98243.03;;;4.38;100.00
54936;BME280;40838;50.676;7.838;2023-05-21T04:08:29;98241.94;;;4.51;100.00
54936;BME280;40838;50.676;7.838;2023-05-21T04:10:56;98231.63;;;4.66;100.00
54936;BME280;40838;50.676;7.838;2023-05-21T04:13:24;98241.94;;;4.67;100.00
54936;BME280;40838;50.676;7.838;2023-05-21T04:15:52;98236.34;;;4.81;100.00
54936;BME280;40838;50.676;7.838;2023-05-21T04:18:19;98236.50;;;4.91;100.00
54936;BME280;40838;50.676;7.838;2023-05-21T04:20:48;98233.44;;;4.99;100.00
54936;BME280;40838;50.676;7.838;2023-05-21T04:23:15;98231.13;;;5.03;100.00
54936;BME280;40838;50.676;7.838;2023-05-21T04:25:42;98232.66;;;4.99;100.00
54936;BME280;40838;50.676;7.838;2023-05-21T04:28:09;98230.38;;;5.07;100.00
54936;BME280;40838;50.676;7.838;2023-05-21T04:30:40;98234.69;;;5.13;100.00
54936;BME280;40838;50.676;7.838;2023-05-21T04:33:06;98238.31;;;5.07;100.00
54936;BME280;40838;50.676;7.838;2023-05-21T04:35:34;98240.56;;;4.99;100.00
54936;BME280;40838;50.676;7.838;2023-05-21T04:38:01;98235.09;;;5.05;100.00
54936;BME280;40838;50.676;7.838;2023-05-21T04:40:30;98235.09;;;5.05;100.00
54936;BME280;40838;50.676;7.838;2023-05-21T04:42:57;98240.47;;;5.10;100.00
54936;BME280;40838;50.676;7.838;2023-05-21T04:45:25;98242.38;;;5.15;100.00
54936;BME280;40838;50.676;7.838;2023-05-21T04:47:53;98236.84;;;5.17;100.00
54936;BME280;40838;50.676;7.838;2023-05-21T04:50:27;98245.91;;;5.21;100.00
54936;BME280;40838;50.676;7.838;2023-05-21T04:52:55;98243.25;;;5.21;100.00
54936;BME280;40838;50.676;7.838;2023-05-21T04:55:25;98235.25;;;5.16;100.00
54936;BME280;40838;50.676;7.838;2023-05-21T04:57:52;98242.22;;;5.22;100.00
54936;BME280;40838;50.676;7.838;2023-05-21T05:00:18;98246.06;;;5.14;100.00
54936;BME280;40838;50.676;7.838;2023-05-21T05:02:45;98247.41;;;5.17;100.00
54936;BME280;40838;50.676;7.838;2023-05-21T05:05:13;98246.44;;;5.23;100.00
54936;BME280;40838;50.676;7.838;2023-05-21T05:07:40;98253.56;;;5.22;100.00
54936;BME280;40838;50.676;7.838;2023-05-21T05:10:07;98241.75;;;5.47;100.00
54936;BME280;40838;50.676;7.838;2023-05-21T05:12:33;98254.00;;;5.58;100.00
54936;BME280;40838;50.676;7.838;2023-05-21T05:15:03;98249.50;;;5.53;100.00
54936;BME280;40838;50.676;7.838;2023-05-21T05:17:30;98252.25;;;5.64;100.00
54936;BME280;40838;50.676;7.838;2023-05-21T05:19:58;98253.63;;;5.88;100.00
54936;BME280;40838;50.676;7.838;2023-05-21T05:22:26;98246.09;;;6.02;100.00
54936;BME280;40838;50.676;7.838;2023-05-21T05:24:53;98236.47;;;6.18;100.00
54936;BME280;40838;50.676;7.838;2023-05-21T05:27:20;98236.56;;;6.28;100.00
54936;BME280;40838;50.676;7.838;2023-05-21T05:29:46;98244.38;;;6.45;100.00
54936;BME280;40838;50.676;7.838;2023-05-21T05:32:13;98238.19;;;6.61;100.00
54936;BME280;40838;50.676;7.838;2023-05-21T05:34:40;98236.66;;;6.70;100.00
54936;BME280;40838;50.676;7.838;2023-05-21T05:37:08;98237.66;;;6.64;100.00
54936;BME280;40838;50.676;7.838;2023-05-21T05:39:35;98231.19;;;6.82;100.00
54936;BME280;40838;50.676;7.838;2023-05-21T05:42:08;98238.88;;;6.89;100.00
54936;BME280;40838;50.676;7.838;2023-05-21T05:44:35;98239.25;;;7.03;100.00
54936;BME280;40838;50.676;7.838;2023-05-21T05:47:01;98233.28;;;7.23;100.00
54936;BME280;40838;50.676;7.838;2023-05-21T05:49:33;98229.28;;;7.20;100.00
54936;BME280;40838;50.676;7.838;2023-05-21T05:52:00;98232.78;;;7.26;100.00
54936;BME280;40838;50.676;7.838;2023-05-21T05:54:28;98235.03;;;7.49;100.00
54936;BME280;40838;50.676;7.838;2023-05-21T05:56:56;98228.97;;;7.64;100.00
54936;BME280;40838;50.676;7.838;2023-05-21T05:59:24;98231.63;;;7.64;100.00
54936;BME280;40838;50.676;7.838;2023-05-21T06:01:55;98232.19;;;7.71;100.00
54936;BME280;40838;50.676;7.838;2023-05-21T06:04:22;98230.91;;;7.84;100.00
54936;BME280;40838;50.676;7.838;2023-05-21T06:06:48;98233.34;;;8.06;100.00
54936;BME280;40838;50.676;7.838;2023-05-21T06:09:15;98234.44;;;8.25;100.00
54936;BME280;40838;50.676;7.838;2023-05-21T06:11:41;98232.56;;;8.26;100.00
54936;BME280;40838;50.676;7.838;2023-05-21T06:14:09;98233.91;;;8.28;100.00
54936;BME280;40838;50.676;7.838;2023-05-21T06:16:36;98232.84;;;8.24;100.00
54936;BME280;40838;50.676;7.838;2023-05-21T06:19:03;98238.69;;;8.26;100.00
54936;BME280;40838;50.676;7.838;2023-05-21T06:21:29;98239.75;;;8.36;100.00
54936;BME280;40838;50.676;7.838;2023-05-21T06:23:59;98249.56;;;8.25;100.00
54936;BME280;40838;50.676;7.838;2023-05-21T06:26:27;98242.44;;;8.51;100.00
54936;BME280;40838;50.676;7.838;2023-05-21T06:28:55;98237.38;;;8.65;100.00
54936;BME280;40838;50.676;7.838;2023-05-21T06:31:23;98240.28;;;8.33;100.00
54936;BME280;40838;50.676;7.838;2023-05-21T06:33:50;98242.66;;;8.14;100.00
54936;BME280;40838;50.676;7.838;2023-05-21T06:36:18;98233.13;;;8.43;100.00
54936;BME280;40838;50.676;7.838;2023-05-21T06:38:46;98236.59;;;8.80;100.00
54936;BME280;40838;50.676;7.838;2023-05-21T06:41:13;98234.75;;;8.80;100.00
54936;BME280;40838;50.676;7.838;2023-05-21T06:43:49;98236.06;;;8.72;100.00
54936;BME280;40838;50.676;7.838;2023-05-21T06:46:36;98228.06;;;8.83;100.00
54936;BME280;40838;50.676;7.838;2023-05-21T06:49:06;98229.16;;;8.92;100.00
54936;BME280;40838;50.676;7.838;2023-05-21T06:51:33;98225.91;;;9.10;100.00
54936;BME280;40838;50.676;7.838;2023-05-21T06:54:01;98231.38;;;9.50;100.00
54936;BME280;40838;50.676;7.838;2023-05-21T06:56:28;98225.63;;;9.12;100.00
54936;BME280;40838;50.676;7.838;2023-05-21T06:58:54;98230.75;;;8.62;100.00
54936;BME280;40838;50.676;7.838;2023-05-21T07:01:21;98235.75;;;8.38;100.00
54936;BME280;40838;50.676;7.838;2023-05-21T07:03:50;98232.59;;;8.92;100.00
54936;BME280;40838;50.676;7.838;2023-05-21T07:06:17;98234.44;;;9.12;100.00
54936;BME280;40838;50.676;7.838;2023-05-21T07:08:44;98232.81;;;9.16;100.00
54936;BME280;40838;50.676;7.838;2023-05-21T07:11:12;98236.25;;;9.22;100.00
54936;BME280;40838;50.676;7.838;2023-05-21T07:13:39;98236.44;;;9.46;100.00
54936;BME280;40838;50.676;7.838;2023-05-21T07:16:06;98232.69;;;9.57;100.00
54936;BME280;40838;50.676;7.838;2023-05-21T07:18:36;98235.13;;;9.43;100.00
54936;BME280;40838;50.676;7.838;2023-05-21T07:21:04;98238.41;;;9.10;100.00
54936;BME280;40838;50.676;7.838;2023-05-21T07:23:31;98230.69;;;9.03;100.00
54936;BME280;40838;50.676;7.838;2023-05-21T07:25:58;98229.69;;;8.79;100.00
54936;BME280;40838;50.676;7.838;2023-05-21T07:28:25;98235.25;;;8.92;100.00
54936;BME280;40838;50.676;7.838;2023-05-21T07:30:51;98236.38;;;9.61;100.00
54936;BME280;40838;50.676;7.838;2023-05-21T07:33:25;98237.97;;;9.68;100.00
54936;BME280;40838;50.676;7.838;2023-05-21T07:35:52;98236.06;;;9.78;100.00
54936;BME280;40838;50.676;7.838;2023-05-21T07:38:20;98236.53;;;9.91;100.00
54936;BME280;40838;50.676;7.838;2023-05-21T07:40:49;98231.59;;;9.58;100.00
54936;BME280;40838;50.676;7.838;2023-05-21T07:43:16;98233.69;;;9.77;100.00
54936;BME280;40838;50.676;7.838;2023-05-21T07:45:43;98238.72;;;9.83;100.00
54936;BME280;40838;50.676;7.838;2023-05-21T07:48:10;98228.06;;;10.28;100.00
54936;BME280;40838;50.676;7.838;2023-05-21T07:50:47;98227.06;;;10.87;100.00
54936;BME280;40838;50.676;7.838;2023-05-21T07:53:14;98223.03;;;11.19;100.00
54936;BME280;40838;50.676;7.838;2023-05-21T07:55:43;98223.31;;;11.41;100.00
54936;BME280;40838;50.676;7.838;2023-05-21T07:58:13;98223.91;;;10.85;100.00
54936;BME280;40838;50.676;7.838;2023-05-21T08:00:41;98231.41;;;11.79;100.00
54936;BME280;40838;50.676;7.838;2023-05-21T08:03:10;98221.41;;;12.09;100.00
54936;BME280;40838;50.676;7.838;2023-05-21T08:05:37;98224.13;;;11.85;100.00
54936;BME280;40838;50.676;7.838;2023-05-21T08:08:04;98223.91;;;12.19;100.00
54936;BME280;40838;50.676;7.838;2023-05-21T08:10:32;98222.19;;;11.23;100.00
54936;BME280;40838;50.676;7.838;2023-05-21T08:13:02;98222.09;;;10.75;100.00
54936;BME280;40838;50.676;7.838;2023-05-21T08:15:32;98224.53;;;11.73;100.00
54936;BME280;40838;50.676;7.838;2023-05-21T08:17:58;98214.13;;;12.47;100.00
54936;BME280;40838;50.676;7.838;2023-05-21T08:20:25;98214.59;;;12.68;100.00
54936;BME280;40838;50.676;7.838;2023-05-21T08:22:53;98215.38;;;13.15;100.00
54936;BME280;40838;50.676;7.838;2023-05-21T08:25:21;98208.91;;;12.89;100.00
54936;BME280;40838;50.676;7.838;2023-05-21T08:27:48;98208.16;;;13.16;100.00
54936;BME280;40838;50.676;7.838;2023-05-21T08:30:17;98214.09;;;12.99;100.00
54936;BME280;40838;50.676;7.838;2023-05-21T08:32:43;98205.66;;;12.92;100.00
54936;BME280;40838;50.676;7.838;2023-05-21T08:35:11;98209.53;;;13.41;100.00
54936;BME280;40838;50.676;7.838;2023-05-21T08:37:46;98200.03;;;12.93;100.00
54936;BME280;40838;50.676;7.838;2023-05-21T08:40:33;98202.00;;;12.55;100.00
54936;BME280;40838;50.676;7.838;2023-05-21T08:43:00;98202.31;;;13.41;100.00
54936;BME280;40838;50.676;7.838;2023-05-21T08:45:43;98201.50;;;13.41;100.00
54936;BME280;40838;50.676;7.838;2023-05-21T08:48:10;98204.19;;;13.68;100.00
54936;BME280;40838;50.676;7.838;2023-05-21T08:50:38;98201.19;;;13.01;100.00
54936;BME280;40838;50.676;7.838;2023-05-21T08:53:21;98206.47;;;13.34;100.00
54936;BME280;40838;50.676;7.838;2023-05-21T08:55:48;98200.22;;;13.52;100.00
54936;BME280;40838;50.676;7.838;2023-05-21T08:58:19;98201.00;;;13.53;100.00
54936;BME280;40838;50.676;7.838;2023-05-21T09:00:47;98206.56;;;13.29;100.00
54936;BME280;40838;50.676;7.838;2023-05-21T09:03:14;98202.94;;;13.88;100.00
54936;BME280;40838;50.676;7.838;2023-05-21T09:05:42;98190.44;;;14.20;100.00
54936;BME280;40838;50.676;7.838;2023-05-21T09:08:11;98200.63;;;13.73;100.00
54936;BME280;40838;50.676;7.838;2023-05-21T09:10:55;98193.69;;;13.72;100.00
54936;BME280;40838;50.676;7.838;2023-05-21T09:13:28;98203.00;;;13.61;100.00
54936;BME280;40838;50.676;7.838;2023-05-21T09:15:58;98199.28;;;14.21;100.00
54936;BME280;40838;50.676;7.838;2023-05-21T09:18:25;98201.81;;;14.03;100.00
54936;BME280;40838;50.676;7.838;2023-05-21T09:21:21;98202.28;;;14.19;100.00
54936;BME280;40838;50.676;7.838;2023-05-21T09:23:51;98207.03;;;14.67;100.00
54936;BME280;40838;50.676;7.838;2023-05-21T09:26:29;98192.63;;;15.25;100.00
54936;BME280;40838;50.676;7.838;2023-05-21T09:29:00;98199.34;;;15.14;100.00
54936;BME280;40838;50.676;7.838;2023-05-21T09:31:29;98197.34;;;14.57;100.00
54936;BME280;40838;50.676;7.838;2023-05-21T09:33:57;98208.63;;;14.09;100.00
54936;BME280;40838;50.676;7.838;2023-05-21T09:36:24;98195.34;;;14.94;100.00
54936;BME280;40838;50.676;7.838;2023-05-21T09:38:53;98195.97;;;14.60;100.00
54936;BME280;40838;50.676;7.838;2023-05-21T09:41:29;98199.59;;;15.26;100.00
54936;BME280;40838;50.676;7.838;2023-05-21T09:44:04;98201.28;;;15.22;100.00
54936;BME280;40838;50.676;7.838;2023-05-21T09:46:38;98198.31;;;15.24;100.00
54936;BME280;40838;50.676;7.838;2023-05-21T09:49:05;98194.16;;;15.58;100.00
54936;BME280;40838;50.676;7.838;2023-05-21T09:51:32;98192.28;;;15.93;100.00
54936;BME280;40838;50.676;7.838;2023-05-21T09:53:58;98191.22;;;16.11;100.00
54936;BME280;40838;50.676;7.838;2023-05-21T09:56:27;98196.22;;;15.78;100.00
54936;BME280;40838;50.676;7.838;2023-05-21T09:58:56;98192.78;;;16.04;100.00
54936;BME280;40838;50.676;7.838;2023-05-21T10:01:27;98183.75;;;15.56;100.00
54936;BME280;40838;50.676;7.838;2023-05-21T10:03:57;98188.16;;;15.61;100.00
54936;BME280;40838;50.676;7.838;2023-05-21T10:06:25;98187.25;;;15.91;100.00
54936;BME280;40838;50.676;7.838;2023-05-21T10:08:53;98181.88;;;15.83;100.00
54936;BME280;40838;50.676;7.838;2023-05-21T10:11:21;98185.50;;;15.95;100.00
54936;BME280;40838;50.676;7.838;2023-05-21T10:13:48;98179.97;;;15.92;100.00
54936;BME280;40838;50.676;7.838;2023-05-21T10:16:16;98172.56;;;15.80;100.00
54936;BME280;40838;50.676;7.838;2023-05-21T10:18:43;98167.19;;;16.24;100.00
54936;BME280;40838;50.676;7.838;2023-05-21T10:21:13;98173.50;;;15.93;100.00
54936;BME280;40838;50.676;7.838;2023-05-21T10:23:40;98162.59;;;15.89;100.00
54936;BME280;40838;50.676;7.838;2023-05-21T10:26:08;98163.38;;;16.42;100.00
54936;BME280;40838;50.676;7.838;2023-05-21T10:28:34;98162.47;;;16.21;100.00
54936;BME280;40838;50.676;7.838;2023-05-21T10:31:01;98159.41;;;15.61;100.00
54936;BME280;40838;50.676;7.838;2023-05-21T10:33:29;98165.03;;;16.73;100.00
54936;BME280;40838;50.676;7.838;2023-05-21T10:35:56;98161.16;;;16.44;100.00
54936;BME280;40838;50.676;7.838;2023-05-21T10:38:25;98161.63;;;16.37;100.00
54936;BME280;40838;50.676;7.838;2023-05-21T10:40:53;98158.69;;;16.77;100.00
54936;BME280;40838;50.676;7.838;2023-05-21T10:43:24;98157.38;;;16.36;100.00
54936;BME280;40838;50.676;7.838;2023-05-21T10:46:01;98153.53;;;17.40;100.00
54936;BME280;40838;50.676;7.838;2023-05-21T10:48:35;98147.84;;;17.03;100.00
54936;BME280;40838;50.676;7.838;2023-05-21T10:51:09;98146.16;;;16.81;100.00
54936;BME280;40838;50.676;7.838;2023-05-21T10:53:46;98142.88;;;17.44;100.00
54936;BME280;40838;50.676;7.838;2023-05-21T10:56:16;98136.75;;;18.18;100.00
54936;BME280;40838;50.676;7.838;2023-05-21T10:58:50;98131.06;;;18.65;100.00
54936;BME280;40838;50.676;7.838;2023-05-21T11:01:20;98120.97;;;19.11;100.00
54936;BME280;40838;50.676;7.838;2023-05-21T11:03:47;98132.25;;;19.14;100.00
54936;BME280;40838;50.676;7.838;2023-05-21T11:06:21;98122.88;;;18.99;100.00
54936;BME280;40838;50.676;7.838;2023-05-21T11:08:50;98119.72;;;18.97;100.00
54936;BME280;40838;50.676;7.838;2023-05-21T11:16:47;98116.09;;;19.94;100.00
54936;BME280;40838;50.676;7.838;2023-05-21T11:19:15;98100.81;;;19.74;100.00
54936;BME280;40838;50.676;7.838;2023-05-21T11:21:42;98108.16;;;18.84;100.00
54936;BME280;40838;50.676;7.838;2023-05-21T11:24:10;98094.88;;;19.03;100.00
54936;BME280;40838;50.676;7.838;2023-05-21T11:29:43;98097.34;;;19.08;100.00
54936;BME280;40838;50.676;7.838;2023-05-21T11:32:11;98101.53;;;18.69;100.00
54936;BME280;40838;50.676;7.838;2023-05-21T11:34:39;98092.66;;;19.58;100.00
54936;BME280;40838;50.676;7.838;2023-05-21T11:37:27;98092.63;;;18.56;100.00
54936;BME280;40838;50.676;7.838;2023-05-21T11:39:56;98084.56;;;18.81;100.00
54936;BME280;40838;50.676;7.838;2023-05-21T11:42:27;98090.47;;;19.48;100.00
54936;BME280;40838;50.676;7.838;2023-05-21T11:44:54;98089.28;;;18.84;100.00
54936;BME280;40838;50.676;7.838;2023-05-21T11:47:21;98092.19;;;18.21;100.00
54936;BME280;40838;50.676;7.838;2023-05-21T11:49:48;98082.63;;;19.06;100.00
54936;BME280;40838;50.676;7.838;2023-05-21T11:52:15;98077.22;;;19.99;100.00
54936;BME280;40838;50.676;7.838;2023-05-21T11:54:44;98074.97;;;20.61;100.00
54936;BME280;40838;50.676;7.838;2023-05-21T11:57:14;98073.81;;;20.30;100.00
54936;BME280;40838;50.676;7.838;2023-05-21T11:59:42;98076.69;;;20.85;100.00
54936;BME280;40838;50.676;7.838;2023-05-21T12:02:12;98056.72;;;20.58;100.00
54936;BME280;40838;50.676;7.838;2023-05-21T12:04:39;98064.59;;;20.63;90.11
54936;BME280;40838;50.676;7.838;2023-05-21T12:07:07;98058.00;;;20.96;84.68
54936;BME280;40838;50.676;7.838;2023-05-21T12:09:37;98060.28;;;20.30;92.25
54936;BME280;40838;50.676;7.838;2023-05-21T12:12:04;98063.53;;;19.92;89.39
54936;BME280;40838;50.676;7.838;2023-05-21T12:14:33;98057.19;;;19.31;100.00
54936;BME280;40838;50.676;7.838;2023-05-21T12:17:01;98057.75;;;20.21;88.16
54936;BME280;40838;50.676;7.838;2023-05-21T12:19:30;98058.28;;;19.83;83.06
54936;BME280;40838;50.676;7.838;2023-05-21T12:21:58;98058.44;;;20.18;80.46
54936;BME280;40838;50.676;7.838;2023-05-21T12:24:25;98054.91;;;21.13;77.34
54936;BME280;40838;50.676;7.838;2023-05-21T12:26:52;98047.78;;;20.26;78.85
54936;BME280;40838;50.676;7.838;2023-05-21T12:29:21;98059.34;;;19.94;65.84
54936;BME280;40838;50.676;7.838;2023-05-21T12:31:49;98056.56;;;19.78;62.78
54936;BME280;40838;50.676;7.838;2023-05-21T12:34:15;98056.97;;;19.00;60.56
54936;BME280;40838;50.676;7.838;2023-05-21T12:37:03;98055.09;;;19.53;58.83
54936;BME280;40838;50.676;7.838;2023-05-21T12:39:30;98068.72;;;19.85;54.36
54936;BME280;40838;50.676;7.838;2023-05-21T12:41:57;98065.50;;;20.86;55.66
54936;BME280;40838;50.676;7.838;2023-05-21T12:44:31;98073.13;;;20.05;58.69
54936;BME280;40838;50.676;7.838;2023-05-21T12:46:59;98064.31;;;20.52;61.35
54936;BME280;40838;50.676;7.838;2023-05-21T12:49:32;98071.81;;;21.26;62.28
54936;BME280;40838;50.676;7.838;2023-05-21T12:52:01;98074.34;;;20.36;60.36
54936;BME280;40838;50.676;7.838;2023-05-21T12:54:29;98061.50;;;20.49;57.01
54936;BME280;40838;50.676;7.838;2023-05-21T12:56:55;98061.13;;;20.34;60.87
54936;BME280;40838;50.676;7.838;2023-05-21T12:59:22;98060.25;;;20.14;60.64
54936;BME280;40838;50.676;7.838;2023-05-21T13:01:50;98057.56;;;20.30;66.53
54936;BME280;40838;50.676;7.838;2023-05-21T13:04:19;98067.50;;;19.42;65.95
54936;BME280;40838;50.676;7.838;2023-05-21T13:06:46;98076.53;;;19.21;62.31
54936;BME280;40838;50.676;7.838;2023-05-21T13:09:13;98066.75;;;19.69;62.04
54936;BME280;40838;50.676;7.838;2023-05-21T13:11:39;98070.88;;;19.79;67.89
54936;BME280;40838;50.676;7.838;2023-05-21T13:14:06;98075.13;;;19.92;68.63